createdAt,value
2017-09-26T00:00:02.906Z,0
2017-09-26T00:00:43.413Z,0
2017-09-26T00:01:24.543Z,0
2017-09-26T00:02:05.088Z,0
2017-09-26T00:02:45.620Z,0
2017-09-26T00:03:26.673Z,0
2017-09-26T00:04:07.176Z,0
2017-09-26T00:04:49.631Z,0
2017-09-26T00:05:30.650Z,0
2017-09-26T00:06:11.180Z,0
2017-09-26T00:06:52.204Z,0
2017-09-26T00:07:32.834Z,0
2017-09-26T00:08:13.426Z,0
2017-09-26T00:08:53.981Z,0
2017-09-26T00:09:34.845Z,0
2017-09-26T00:10:15.510Z,0
2017-09-26T00:10:57.156Z,0
2017-09-26T00:11:37.392Z,0
2017-09-26T00:12:18.201Z,0
2017-09-26T00:12:58.726Z,0
2017-09-26T00:13:39.282Z,0
2017-09-26T00:14:19.748Z,0
2017-09-26T00:15:00.170Z,0
2017-09-26T00:15:40.717Z,0
2017-09-26T00:16:21.309Z,0
2017-09-26T00:17:01.861Z,0
2017-09-26T00:17:42.424Z,0
2017-09-26T00:18:22.936Z,0
2017-09-26T00:19:03.510Z,0
2017-09-26T00:19:44.044Z,0
2017-09-26T00:20:24.550Z,0
2017-09-26T00:21:05.095Z,0
2017-09-26T00:21:45.617Z,0
2017-09-26T00:22:26.156Z,0
2017-09-26T00:23:06.678Z,0
2017-09-26T00:23:47.245Z,0
2017-09-26T00:24:27.790Z,0
2017-09-26T00:25:08.352Z,0
2017-09-26T00:25:48.881Z,0
2017-09-26T00:26:29.366Z,0
2017-09-26T00:27:09.925Z,0
2017-09-26T00:27:50.455Z,0
2017-09-26T00:28:31.018Z,0
2017-09-26T00:29:11.559Z,0
2017-09-26T00:29:52.158Z,0
2017-09-26T00:30:32.667Z,0
2017-09-26T00:31:13.191Z,0
2017-09-26T00:31:53.719Z,0
2017-09-26T00:32:34.300Z,0
2017-09-26T00:33:14.823Z,0
2017-09-26T00:33:55.358Z,0
2017-09-26T00:34:35.897Z,0
2017-09-26T00:35:16.419Z,0
2017-09-26T00:35:56.961Z,0
2017-09-26T00:36:37.557Z,0
2017-09-26T00:37:18.076Z,0
2017-09-26T00:37:58.674Z,0
2017-09-26T00:38:39.264Z,0
2017-09-26T00:39:19.773Z,0
2017-09-26T00:40:00.336Z,0
2017-09-26T00:40:40.818Z,0
2017-09-26T00:41:21.361Z,0
2017-09-26T00:42:01.916Z,0
2017-09-26T00:42:42.422Z,0
2017-09-26T00:43:22.940Z,0
2017-09-26T00:44:03.504Z,0
2017-09-26T00:44:44.111Z,0
2017-09-26T00:45:24.588Z,0
2017-09-26T00:46:05.098Z,0
2017-09-26T00:46:45.674Z,0
2017-09-26T00:47:26.210Z,0
2017-09-26T00:48:06.777Z,0
2017-09-26T00:48:47.319Z,0
2017-09-26T00:49:27.863Z,0
2017-09-26T00:50:08.415Z,0
2017-09-26T00:50:48.970Z,0
2017-09-26T00:51:29.567Z,0
2017-09-26T00:52:10.062Z,0
2017-09-26T00:52:50.665Z,0
2017-09-26T00:53:31.156Z,0
2017-09-26T00:54:11.685Z,0
2017-09-26T00:54:52.220Z,0
2017-09-26T00:55:32.787Z,0
2017-09-26T00:56:13.294Z,0
2017-09-26T00:56:53.872Z,0
2017-09-26T00:57:34.392Z,0
2017-09-26T00:58:14.975Z,0
2017-09-26T00:58:55.450Z,0
2017-09-26T00:59:36.050Z,0
2017-09-26T01:00:16.565Z,0
2017-09-26T01:00:57.097Z,0
2017-09-26T01:01:37.635Z,0
2017-09-26T01:02:18.170Z,0
2017-09-26T01:02:58.664Z,0
2017-09-26T01:03:39.201Z,0
2017-09-26T01:04:19.754Z,0
2017-09-26T01:05:00.266Z,0
2017-09-26T01:05:40.839Z,0
2017-09-26T01:06:21.335Z,0
2017-09-26T01:07:01.872Z,0
2017-09-26T01:07:42.390Z,0
2017-09-26T01:08:22.942Z,0
2017-09-26T01:09:03.498Z,0
2017-09-26T01:09:44.009Z,0
2017-09-26T01:10:24.540Z,0
2017-09-26T01:11:05.092Z,0
2017-09-26T01:11:45.600Z,0
2017-09-26T01:12:26.182Z,0
2017-09-26T01:13:06.730Z,0
2017-09-26T01:13:47.265Z,0
2017-09-26T01:14:27.809Z,0
2017-09-26T01:15:08.298Z,0
2017-09-26T01:15:48.869Z,0
2017-09-26T01:16:29.441Z,0
2017-09-26T01:17:10.019Z,0
2017-09-26T01:17:50.553Z,0
2017-09-26T01:18:31.083Z,0
2017-09-26T01:19:11.615Z,0
2017-09-26T01:19:52.135Z,0
2017-09-26T01:20:32.689Z,0
2017-09-26T01:21:13.227Z,0
2017-09-26T01:21:53.803Z,0
2017-09-26T01:22:34.335Z,0
2017-09-26T01:23:14.841Z,0
2017-09-26T01:23:55.462Z,0
2017-09-26T01:24:35.986Z,0
2017-09-26T01:25:16.552Z,0
2017-09-26T01:25:57.089Z,0
2017-09-26T01:26:37.578Z,0
2017-09-26T01:27:18.141Z,0
2017-09-26T01:27:58.724Z,0
2017-09-26T01:28:39.274Z,0
2017-09-26T01:29:19.795Z,0
2017-09-26T01:30:00.314Z,0
2017-09-26T01:30:40.849Z,0
2017-09-26T01:31:21.405Z,0
2017-09-26T01:32:01.994Z,0
2017-09-26T01:32:42.554Z,0
2017-09-26T01:33:23.126Z,0
2017-09-26T01:34:03.650Z,0
2017-09-26T01:34:44.149Z,0
2017-09-26T01:35:24.723Z,0
2017-09-26T01:36:05.313Z,0
2017-09-26T01:36:45.818Z,0
2017-09-26T01:37:26.370Z,0
2017-09-26T01:38:06.865Z,0
2017-09-26T01:38:47.416Z,0
2017-09-26T01:39:27.986Z,0
2017-09-26T01:40:08.500Z,0
2017-09-26T01:40:49.024Z,0
2017-09-26T01:41:29.549Z,0
2017-09-26T01:42:10.079Z,0
2017-09-26T01:42:50.597Z,0
2017-09-26T01:43:31.117Z,0
2017-09-26T01:44:11.637Z,0
2017-09-26T01:44:52.188Z,0
2017-09-26T01:45:32.746Z,0
2017-09-26T01:46:13.296Z,0
2017-09-26T01:46:53.989Z,0
2017-09-26T01:47:34.542Z,0
2017-09-26T01:48:15.128Z,0
2017-09-26T01:48:55.668Z,0
2017-09-26T01:51:09.567Z,0
2017-09-26T01:51:50.083Z,0
2017-09-26T01:52:30.568Z,0
2017-09-26T01:53:11.128Z,0
2017-09-26T01:53:51.713Z,0
2017-09-26T01:54:32.295Z,0
2017-09-26T01:55:13.020Z,0
2017-09-26T01:55:53.600Z,0
2017-09-26T01:56:34.163Z,0
2017-09-26T01:57:14.695Z,0
2017-09-26T01:57:55.181Z,0
2017-09-26T01:58:35.755Z,0
2017-09-26T01:59:16.334Z,0
2017-09-26T01:59:56.846Z,0
2017-09-26T02:00:37.365Z,0
2017-09-26T02:01:17.975Z,0
2017-09-26T02:01:58.465Z,0
2017-09-26T02:02:39.110Z,0
2017-09-26T02:03:19.633Z,0
2017-09-26T02:04:00.204Z,0
2017-09-26T02:04:40.700Z,0
2017-09-26T02:05:21.254Z,0
2017-09-26T02:06:01.772Z,0
2017-09-26T02:06:42.404Z,0
2017-09-26T02:07:22.958Z,0
2017-09-26T02:08:03.489Z,0
2017-09-26T02:08:44.045Z,0
2017-09-26T02:09:24.551Z,0
2017-09-26T02:10:05.131Z,0
2017-09-26T02:10:45.625Z,0
2017-09-26T02:11:26.132Z,0
2017-09-26T02:12:06.715Z,0
2017-09-26T02:12:47.204Z,0
2017-09-26T02:13:27.723Z,0
2017-09-26T02:14:08.272Z,0
2017-09-26T02:14:48.847Z,0
2017-09-26T02:15:29.333Z,0
2017-09-26T02:16:09.882Z,0
2017-09-26T02:16:50.544Z,0
2017-09-26T02:17:31.018Z,0
2017-09-26T02:18:11.584Z,0
2017-09-26T02:18:52.167Z,0
2017-09-26T02:19:32.746Z,0
2017-09-26T02:20:13.336Z,0
2017-09-26T02:20:53.916Z,0
2017-09-26T02:21:34.551Z,0
2017-09-26T02:22:15.004Z,0
2017-09-26T02:22:55.531Z,0
2017-09-26T02:23:36.043Z,0
2017-09-26T02:24:16.711Z,0
2017-09-26T02:24:57.200Z,0
2017-09-26T02:25:37.738Z,0
2017-09-26T02:26:18.287Z,0
2017-09-26T02:26:58.890Z,0
2017-09-26T02:27:39.478Z,0
2017-09-26T02:28:19.900Z,0
2017-09-26T02:29:00.459Z,0
2017-09-26T02:29:41.051Z,0
2017-09-26T02:30:21.549Z,0
2017-09-26T02:31:02.070Z,0
2017-09-26T02:31:42.648Z,0
2017-09-26T02:32:23.110Z,0
2017-09-26T02:33:03.661Z,0
2017-09-26T02:33:44.251Z,0
2017-09-26T02:34:24.809Z,0
2017-09-26T02:35:05.376Z,0
2017-09-26T02:35:45.967Z,0
2017-09-26T02:36:26.518Z,0
2017-09-26T02:37:07.095Z,0
2017-09-26T02:37:47.618Z,0
2017-09-26T02:38:28.148Z,0
2017-09-26T02:39:08.694Z,0
2017-09-26T02:39:49.242Z,0
2017-09-26T02:40:29.727Z,0
2017-09-26T02:41:10.311Z,0
2017-09-26T02:41:50.896Z,0
2017-09-26T02:42:31.406Z,0
2017-09-26T02:43:11.931Z,0
2017-09-26T02:43:52.479Z,0
2017-09-26T02:44:33.063Z,0
2017-09-26T02:45:13.567Z,0
2017-09-26T02:45:54.307Z,0
2017-09-26T02:46:34.820Z,0
2017-09-26T02:47:15.441Z,0
2017-09-26T02:47:55.970Z,0
2017-09-26T02:48:36.539Z,0
2017-09-26T02:49:19.625Z,0
2017-09-26T02:50:00.111Z,0
2017-09-26T02:50:40.678Z,0
2017-09-26T02:51:21.268Z,0
2017-09-26T02:52:01.828Z,0
2017-09-26T02:52:42.391Z,0
2017-09-26T02:53:23.022Z,0
2017-09-26T02:54:03.549Z,0
2017-09-26T02:54:44.053Z,0
2017-09-26T02:55:24.672Z,0
2017-09-26T02:56:05.216Z,0
2017-09-26T02:56:45.704Z,0
2017-09-26T02:57:26.289Z,0
2017-09-26T02:58:06.798Z,0
2017-09-26T02:58:47.411Z,0
2017-09-26T02:59:27.953Z,0
2017-09-26T03:00:08.548Z,0
2017-09-26T03:00:49.053Z,0
2017-09-26T03:01:29.726Z,0
2017-09-26T03:02:10.353Z,0
2017-09-26T03:02:51.000Z,0
2017-09-26T03:03:31.568Z,0
2017-09-26T03:04:12.095Z,0
2017-09-26T03:04:52.636Z,0
2017-09-26T03:05:33.201Z,0
2017-09-26T03:06:13.705Z,0
2017-09-26T03:06:54.234Z,0
2017-09-26T03:07:34.779Z,0
2017-09-26T03:08:15.342Z,0
2017-09-26T03:08:55.896Z,0
2017-09-26T03:09:36.444Z,0
2017-09-26T03:10:17.010Z,0
2017-09-26T03:10:57.521Z,0
2017-09-26T03:11:38.151Z,0
2017-09-26T03:12:18.834Z,0
2017-09-26T03:12:59.468Z,0
2017-09-26T03:13:39.926Z,0
2017-09-26T03:14:20.493Z,0
2017-09-26T03:15:01.038Z,0
2017-09-26T03:15:41.583Z,0
2017-09-26T03:16:22.163Z,0
2017-09-26T03:17:02.656Z,0
2017-09-26T03:17:43.236Z,0
2017-09-26T03:18:23.809Z,0
2017-09-26T03:19:04.494Z,0
2017-09-26T03:19:45.418Z,0
2017-09-26T03:20:26.148Z,0
2017-09-26T03:21:06.745Z,0
2017-09-26T03:21:47.313Z,0
2017-09-26T03:22:27.839Z,0
2017-09-26T03:23:08.405Z,0
2017-09-26T03:23:48.990Z,0
2017-09-26T03:24:29.609Z,0
2017-09-26T03:25:10.134Z,0
2017-09-26T03:25:50.665Z,0
2017-09-26T03:26:31.206Z,0
2017-09-26T03:27:11.815Z,0
2017-09-26T03:27:52.380Z,0
2017-09-26T03:28:33.058Z,0
2017-09-26T03:29:13.493Z,0
2017-09-26T03:29:54.045Z,0
2017-09-26T03:30:34.614Z,0
2017-09-26T03:31:15.195Z,0
2017-09-26T03:31:55.684Z,0
2017-09-26T03:32:36.223Z,0
2017-09-26T03:33:16.775Z,0
2017-09-26T03:33:57.317Z,0
2017-09-26T03:34:37.863Z,0
2017-09-26T03:35:18.421Z,0
2017-09-26T03:35:59.034Z,0
2017-09-26T03:36:39.578Z,0
2017-09-26T03:37:20.156Z,0
2017-09-26T03:38:00.685Z,0
2017-09-26T03:38:41.280Z,0
2017-09-26T03:39:21.860Z,0
2017-09-26T03:40:02.376Z,0
2017-09-26T03:40:42.916Z,0
2017-09-26T03:41:23.462Z,0
2017-09-26T03:42:04.001Z,0
2017-09-26T03:42:44.589Z,0
2017-09-26T03:43:25.151Z,0
2017-09-26T03:44:05.729Z,0
2017-09-26T03:44:46.290Z,0
2017-09-26T03:45:26.819Z,0
2017-09-26T03:46:07.561Z,0
2017-09-26T03:46:48.034Z,0
2017-09-26T03:47:28.603Z,0
2017-09-26T03:48:09.153Z,0
2017-09-26T03:48:49.789Z,0
2017-09-26T03:49:30.396Z,0
2017-09-26T03:50:10.892Z,0
2017-09-26T03:50:51.544Z,0
2017-09-26T03:51:32.091Z,0
2017-09-26T03:52:12.676Z,0
2017-09-26T03:52:53.172Z,0
2017-09-26T03:53:33.870Z,0
2017-09-26T03:54:14.335Z,0
2017-09-26T03:54:54.815Z,0
2017-09-26T03:55:35.439Z,0
2017-09-26T03:56:16.643Z,0
2017-09-26T03:56:57.498Z,0
2017-09-26T03:57:38.491Z,0
2017-09-26T03:58:19.361Z,0
2017-09-26T03:59:01.156Z,0
2017-09-26T03:59:42.912Z,0
2017-09-26T04:00:24.442Z,0
2017-09-26T04:01:05.210Z,0
2017-09-26T04:01:45.982Z,0
2017-09-26T04:02:26.521Z,0
2017-09-26T04:03:07.478Z,0
2017-09-26T04:03:48.012Z,0
2017-09-26T04:04:28.520Z,0
2017-09-26T04:05:09.083Z,0
2017-09-26T04:05:49.579Z,0
2017-09-26T04:06:30.169Z,0
2017-09-26T04:07:10.689Z,0
2017-09-26T04:07:51.216Z,0
2017-09-26T04:08:31.764Z,0
2017-09-26T04:09:12.287Z,0
2017-09-26T04:09:52.867Z,0
2017-09-26T04:10:33.485Z,0
2017-09-26T04:11:14.077Z,0
2017-09-26T04:11:54.612Z,0
2017-09-26T04:12:35.165Z,0
2017-09-26T04:13:15.693Z,0
2017-09-26T04:13:56.242Z,0
2017-09-26T04:14:36.721Z,0
2017-09-26T04:15:17.281Z,0
2017-09-26T04:15:57.884Z,0
2017-09-26T04:16:38.338Z,0
2017-09-26T04:17:18.955Z,0
2017-09-26T04:17:59.419Z,0
2017-09-26T04:18:40.030Z,0
2017-09-26T04:19:20.587Z,0
2017-09-26T04:20:01.114Z,0
2017-09-26T04:20:41.675Z,0
2017-09-26T04:21:22.238Z,0
2017-09-26T04:22:02.796Z,0
2017-09-26T04:22:43.452Z,0
2017-09-26T04:23:24.000Z,0
2017-09-26T04:24:04.501Z,0
2017-09-26T04:24:45.084Z,0
2017-09-26T04:25:25.669Z,0
2017-09-26T04:26:06.174Z,0
2017-09-26T04:26:46.778Z,0
2017-09-26T04:27:27.346Z,0
2017-09-26T04:28:07.894Z,0
2017-09-26T04:28:48.383Z,0
2017-09-26T04:29:28.922Z,0
2017-09-26T04:30:09.596Z,0
2017-09-26T04:30:50.646Z,0
2017-09-26T04:31:31.559Z,0
2017-09-26T04:32:12.111Z,0
2017-09-26T04:32:52.729Z,0
2017-09-26T04:33:33.266Z,0
2017-09-26T04:34:13.807Z,0
2017-09-26T04:34:54.351Z,0
2017-09-26T04:35:35.186Z,0
2017-09-26T04:36:15.648Z,0
2017-09-26T04:36:56.331Z,0
2017-09-26T04:37:37.814Z,0
2017-09-26T04:38:17.951Z,0
2017-09-26T04:38:59.028Z,0
2017-09-26T04:39:40.040Z,0
2017-09-26T04:40:21.032Z,0
2017-09-26T04:41:02.406Z,0
2017-09-26T04:41:44.298Z,0
2017-09-26T04:42:25.695Z,0
2017-09-26T04:43:05.942Z,0
2017-09-26T04:43:46.422Z,0
2017-09-26T04:44:27.039Z,0
2017-09-26T04:45:07.602Z,0
2017-09-26T04:45:48.119Z,0
2017-09-26T04:46:28.781Z,0
2017-09-26T04:47:13.968Z,0
2017-09-26T04:47:56.816Z,0
2017-09-26T04:48:39.253Z,0
2017-09-26T04:49:22.746Z,0
2017-09-26T04:50:06.091Z,0
2017-09-26T04:50:48.071Z,4
2017-09-26T04:51:30.620Z,4
2017-09-26T04:52:16.925Z,4
2017-09-26T04:53:02.524Z,0
2017-09-26T04:58:43.210Z,8
2017-09-26T04:59:23.854Z,8
2017-09-26T05:00:04.563Z,8
2017-09-26T05:00:45.115Z,8
2017-09-26T05:01:25.759Z,12
2017-09-26T05:02:06.319Z,12
2017-09-26T05:02:47.105Z,12
2017-09-26T05:03:27.622Z,16
2017-09-26T05:04:08.177Z,16
2017-09-26T05:04:48.703Z,20
2017-09-26T05:05:29.217Z,20
2017-09-26T05:06:09.705Z,28
2017-09-26T05:06:50.406Z,28
2017-09-26T05:07:30.927Z,32
2017-09-26T05:08:11.453Z,36
2017-09-26T05:08:51.971Z,36
2017-09-26T05:09:32.540Z,44
2017-09-26T05:10:13.098Z,48
2017-09-26T05:10:53.626Z,48
2017-09-26T05:11:34.185Z,56
2017-09-26T05:12:14.764Z,60
2017-09-26T05:12:55.246Z,64
2017-09-26T05:13:35.772Z,72
2017-09-26T05:14:16.267Z,76
2017-09-26T05:14:56.793Z,80
2017-09-26T05:15:37.355Z,88
2017-09-26T05:16:17.863Z,96
2017-09-26T05:16:58.417Z,104
2017-09-26T05:17:38.919Z,112
2017-09-26T05:18:19.479Z,116
2017-09-26T05:18:59.984Z,124
2017-09-26T05:19:40.498Z,132
2017-09-26T05:20:21.430Z,140
2017-09-26T05:21:02.088Z,152
2017-09-26T05:21:43.194Z,160
2017-09-26T05:22:23.205Z,168
2017-09-26T05:23:03.764Z,176
2017-09-26T05:23:44.345Z,184
2017-09-26T05:24:24.907Z,196
2017-09-26T05:25:05.454Z,208
2017-09-26T05:25:45.956Z,216
2017-09-26T05:26:26.523Z,224
2017-09-26T05:27:07.111Z,240
2017-09-26T05:27:47.676Z,248
2017-09-26T05:28:28.342Z,256
2017-09-26T05:29:08.820Z,268
2017-09-26T05:29:49.368Z,280
2017-09-26T05:30:29.885Z,288
2017-09-26T05:31:10.386Z,296
2017-09-26T05:31:50.971Z,304
2017-09-26T05:32:31.751Z,312
2017-09-26T05:33:12.290Z,324
2017-09-26T05:33:52.825Z,336
2017-09-26T05:34:33.381Z,348
2017-09-26T05:35:13.986Z,368
2017-09-26T05:35:54.511Z,392
2017-09-26T05:36:34.986Z,408
2017-09-26T05:37:18.262Z,428
2017-09-26T05:37:58.648Z,448
2017-09-26T05:38:39.200Z,460
2017-09-26T05:39:19.716Z,480
2017-09-26T05:40:00.552Z,496
2017-09-26T05:40:41.062Z,516
2017-09-26T05:41:21.607Z,536
2017-09-26T05:42:02.179Z,552
2017-09-26T05:42:42.742Z,576
2017-09-26T05:43:25.347Z,592
2017-09-26T05:44:05.855Z,616
2017-09-26T05:44:46.356Z,632
2017-09-26T05:45:26.895Z,652
2017-09-26T05:46:07.456Z,672
2017-09-26T05:46:48.661Z,688
2017-09-26T05:47:29.584Z,708
2017-09-26T05:48:10.303Z,732
2017-09-26T05:48:50.875Z,752
2017-09-26T05:49:31.434Z,776
2017-09-26T05:50:11.944Z,800
2017-09-26T05:50:52.547Z,828
2017-09-26T05:51:33.211Z,852
2017-09-26T05:52:13.693Z,880
2017-09-26T05:52:54.276Z,916
2017-09-26T05:53:34.762Z,948
2017-09-26T05:54:15.330Z,980
2017-09-26T05:54:55.858Z,1016
2017-09-26T05:55:36.417Z,1044
2017-09-26T05:56:16.963Z,1076
2017-09-26T05:56:57.487Z,1108
2017-09-26T05:57:37.988Z,1136
2017-09-26T05:58:18.507Z,1168
2017-09-26T05:58:59.061Z,1192
2017-09-26T05:59:39.535Z,1220
2017-09-26T06:00:20.271Z,1248
2017-09-26T06:01:00.802Z,1288
2017-09-26T06:01:41.373Z,1320
2017-09-26T06:02:21.906Z,1364
2017-09-26T06:03:02.870Z,1412
2017-09-26T06:03:43.344Z,1480
2017-09-26T06:04:23.849Z,1536
2017-09-26T06:05:04.355Z,1592
2017-09-26T06:05:44.959Z,1652
2017-09-26T06:06:25.500Z,1704
2017-09-26T06:07:06.067Z,1752
2017-09-26T06:07:46.615Z,1796
2017-09-26T06:08:27.138Z,1832
2017-09-26T06:09:07.647Z,1872
2017-09-26T06:09:48.371Z,1908
2017-09-26T06:10:28.917Z,1944
2017-09-26T06:11:09.386Z,1972
2017-09-26T06:11:49.998Z,2000
2017-09-26T06:12:30.586Z,2040
2017-09-26T06:13:11.456Z,2080
2017-09-26T06:13:51.979Z,2120
2017-09-26T06:14:32.548Z,2168
2017-09-26T06:15:13.100Z,2224
2017-09-26T06:15:53.638Z,2284
2017-09-26T06:16:34.169Z,2332
2017-09-26T06:17:14.706Z,2372
2017-09-26T06:17:55.261Z,2408
2017-09-26T06:18:35.798Z,2440
2017-09-26T06:19:16.418Z,2468
2017-09-26T06:19:56.917Z,2496
2017-09-26T06:20:37.494Z,2532
2017-09-26T06:21:18.453Z,2568
2017-09-26T06:21:59.708Z,2604
2017-09-26T06:22:40.432Z,2648
2017-09-26T06:23:24.807Z,2696
2017-09-26T06:25:26.317Z,2880
2017-09-26T06:26:06.886Z,2932
2017-09-26T06:26:47.557Z,2964
2017-09-26T06:27:28.137Z,2996
2017-09-26T06:28:09.088Z,3012
2017-09-26T06:28:49.884Z,3016
2017-09-26T06:29:30.248Z,3008
2017-09-26T06:30:10.880Z,2992
2017-09-26T06:30:51.636Z,2988
2017-09-26T06:31:32.391Z,3000
2017-09-26T06:32:12.748Z,3016
2017-09-26T06:32:53.577Z,3024
2017-09-26T06:33:34.039Z,3016
2017-09-26T06:34:15.205Z,2992
2017-09-26T06:34:55.797Z,2968
2017-09-26T06:35:36.410Z,2952
2017-09-26T06:36:17.039Z,2952
2017-09-26T06:36:58.454Z,2956
2017-09-26T06:37:42.739Z,2956
2017-09-26T06:38:26.230Z,2952
2017-09-26T06:39:09.530Z,2960
2017-09-26T06:39:52.796Z,2976
2017-09-26T06:40:33.504Z,3008
2017-09-26T06:41:14.915Z,3032
2017-09-26T06:41:56.399Z,3064
2017-09-26T06:42:37.040Z,3100
2017-09-26T06:43:19.464Z,3112
2017-09-26T06:44:02.019Z,3124
2017-09-26T06:44:43.018Z,3152
2017-09-26T06:45:24.758Z,3136
2017-09-26T06:46:05.605Z,3156
2017-09-26T06:46:46.086Z,3132
2017-09-26T06:47:26.728Z,3068
2017-09-26T06:48:08.047Z,3044
2017-09-26T06:48:48.589Z,3056
2017-09-26T06:49:32.655Z,3128
2017-09-26T06:50:13.242Z,3188
2017-09-26T06:50:54.315Z,3220
2017-09-26T06:51:35.683Z,3288
2017-09-26T06:53:52.220Z,3440
2017-09-26T06:54:34.414Z,3472
2017-09-26T06:55:15.654Z,3600
2017-09-26T06:55:56.305Z,3580
2017-09-26T06:56:36.913Z,3788
2017-09-26T06:57:17.711Z,3724
2017-09-26T06:57:58.245Z,3660
2017-09-26T06:58:40.714Z,3704
2017-09-26T06:59:21.283Z,3712
2017-09-26T07:00:01.826Z,3680
2017-09-26T07:00:46.857Z,3744
2017-09-26T07:01:27.439Z,3660
2017-09-26T07:02:08.163Z,3580
2017-09-26T07:11:46.743Z,3728
2017-09-26T07:12:27.529Z,3768
2017-09-26T07:13:08.202Z,3824
2017-09-26T07:13:48.652Z,3880
2017-09-26T07:14:29.391Z,3940
2017-09-26T07:15:09.977Z,3988
2017-09-26T07:15:51.621Z,4036
2017-09-26T07:16:32.163Z,4104
2017-09-26T07:17:12.957Z,4092
2017-09-26T07:17:53.597Z,4100
2017-09-26T07:18:34.187Z,4072
2017-09-26T07:19:14.777Z,4024
2017-09-26T07:19:55.320Z,3980
2017-09-26T07:20:35.973Z,3952
2017-09-26T07:21:16.535Z,3944
2017-09-26T07:21:57.067Z,3952
2017-09-26T07:22:37.634Z,3972
2017-09-26T07:23:18.293Z,4004
2017-09-26T07:23:58.840Z,4028
2017-09-26T07:24:39.389Z,4052
2017-09-26T07:25:24.182Z,4068
2017-09-26T07:26:04.648Z,4080
2017-09-26T07:26:45.475Z,4084
2017-09-26T07:27:26.021Z,4084
2017-09-26T07:28:07.163Z,4080
2017-09-26T07:28:47.727Z,4080
2017-09-26T07:29:28.392Z,4072
2017-09-26T07:30:09.083Z,4056
2017-09-26T07:30:49.491Z,4048
2017-09-26T07:31:30.334Z,4044
2017-09-26T07:32:10.895Z,4056
2017-09-26T07:32:51.535Z,4056
2017-09-26T07:33:32.011Z,4056
2017-09-26T07:34:12.617Z,4056
2017-09-26T07:34:53.309Z,4056
2017-09-26T07:35:41.265Z,4072
2017-09-26T07:36:25.550Z,4084
2017-09-26T07:37:08.290Z,4096
2017-09-26T07:37:49.905Z,4108
2017-09-26T07:38:33.682Z,4128
2017-09-26T07:39:16.209Z,4132
2017-09-26T07:39:58.575Z,4152
2017-09-26T09:24:57.262Z,4976
2017-09-26T09:25:37.796Z,4948
2017-09-26T09:26:18.379Z,4972
2017-09-26T09:26:58.957Z,4936
2017-09-26T09:27:39.446Z,4968
2017-09-26T09:28:20.049Z,4968
2017-09-26T09:29:00.739Z,4960
2017-09-26T09:29:41.338Z,4972
2017-09-26T09:30:22.000Z,4936
2017-09-26T09:31:02.456Z,4880
2017-09-26T09:31:43.216Z,4772
2017-09-26T09:32:23.685Z,4616
2017-09-26T09:33:04.296Z,4544
2017-09-26T09:33:44.904Z,4480
2017-09-26T09:34:25.474Z,4440
2017-09-26T09:35:06.009Z,4480
2017-09-26T09:35:46.587Z,4316
2017-09-26T09:36:27.158Z,4224
2017-09-26T09:37:07.621Z,4140
2017-09-26T09:37:48.141Z,4052
2017-09-26T09:38:28.728Z,3972
2017-09-26T09:39:09.278Z,3888
2017-09-26T09:39:50.165Z,3796
2017-09-26T09:40:30.699Z,3748
2017-09-26T09:41:11.254Z,3688
2017-09-26T09:41:51.843Z,3572
2017-09-26T09:42:32.423Z,3640
2017-09-26T09:43:12.973Z,3656
2017-09-26T09:43:53.479Z,3660
2017-09-26T09:44:34.093Z,3656
2017-09-26T09:45:14.643Z,3640
2017-09-26T09:45:55.203Z,3620
2017-09-26T09:46:35.740Z,3616
2017-09-26T09:47:16.305Z,3612
2017-09-26T09:47:56.841Z,3612
2017-09-26T09:48:37.360Z,3620
2017-09-26T09:49:17.945Z,3628
2017-09-26T09:49:58.496Z,3624
2017-09-26T09:50:39.047Z,3612
2017-09-26T09:51:19.664Z,3604
2017-09-26T09:52:00.239Z,3584
2017-09-26T09:52:40.757Z,3576
2017-09-26T09:53:21.318Z,3592
2017-09-26T09:54:01.855Z,3604
2017-09-26T09:54:42.398Z,3604
2017-09-26T09:55:23.791Z,3600
2017-09-26T09:56:03.499Z,3604
2017-09-26T09:56:44.038Z,3604
2017-09-26T09:57:24.746Z,3604
2017-09-26T09:58:05.304Z,3596
2017-09-26T09:58:45.944Z,3572
2017-09-26T09:59:26.435Z,3556
2017-09-26T10:00:06.971Z,3540
2017-09-26T10:00:47.595Z,3528
2017-09-26T10:01:28.268Z,3508
2017-09-26T10:02:08.762Z,3488
2017-09-26T10:02:49.283Z,3464
2017-09-26T10:03:29.928Z,3432
2017-09-26T10:04:10.516Z,3412
2017-09-26T10:04:51.023Z,3376
2017-09-26T10:05:31.550Z,3348
2017-09-26T10:06:12.107Z,3308
2017-09-26T10:06:52.708Z,3256
2017-09-26T10:07:33.224Z,3264
2017-09-26T10:08:13.786Z,3288
2017-09-26T10:08:54.370Z,3300
2017-09-26T10:09:34.891Z,3312
2017-09-26T10:10:15.473Z,3328
2017-09-26T10:10:55.995Z,3348
2017-09-26T10:11:36.628Z,3356
2017-09-26T10:12:17.164Z,3372
2017-09-26T10:12:57.683Z,3368
2017-09-26T10:13:38.235Z,3328
2017-09-26T10:14:18.845Z,3188
2017-09-26T10:14:59.311Z,3140
2017-09-26T10:15:39.938Z,3184
2017-09-26T10:16:20.468Z,3124
2017-09-26T10:17:00.993Z,3072
2017-09-26T10:17:41.543Z,3052
2017-09-26T10:18:22.152Z,3040
2017-09-26T10:19:02.730Z,3028
2017-09-26T10:19:43.271Z,3020
2017-09-26T10:20:23.883Z,3024
2017-09-26T10:21:04.360Z,3072
2017-09-26T10:21:44.902Z,3088
2017-09-26T10:22:25.490Z,3012
2017-09-26T10:23:06.005Z,3012
2017-09-26T10:23:46.542Z,3012
2017-09-26T10:24:27.140Z,3120
2017-09-26T10:25:07.673Z,3236
2017-09-26T10:25:48.441Z,3072
2017-09-26T11:15:19.308Z,2808
2017-09-26T11:15:59.757Z,2800
2017-09-26T11:16:40.250Z,2788
2017-09-26T11:17:20.812Z,2780
2017-09-26T11:18:01.397Z,2776
2017-09-26T11:18:42.005Z,2768
2017-09-26T11:19:22.545Z,2764
2017-09-26T11:20:03.118Z,2760
2017-09-26T11:20:43.594Z,2752
2017-09-26T11:21:24.204Z,2756
2017-09-26T11:22:04.903Z,2752
2017-09-26T11:22:46.271Z,2744
2017-09-26T11:23:26.076Z,2744
2017-09-26T11:24:06.592Z,2748
2017-09-26T11:24:47.094Z,2748
2017-09-26T11:25:27.680Z,2748
2017-09-26T11:26:08.170Z,2744
2017-09-26T11:26:48.657Z,2740
2017-09-26T11:27:29.281Z,2732
2017-09-26T11:28:09.784Z,2736
2017-09-26T11:28:50.321Z,2732
2017-09-26T11:29:30.860Z,2724
2017-09-26T11:30:11.459Z,2716
2017-09-26T11:30:51.958Z,2712
2017-09-26T11:31:32.672Z,2732
2017-09-26T11:32:13.196Z,2728
2017-09-26T11:32:54.001Z,2724
2017-09-26T11:33:34.457Z,2724
2017-09-26T11:34:15.001Z,2724
2017-09-26T11:34:55.505Z,2720
2017-09-26T11:35:36.086Z,2716
2017-09-26T11:36:16.605Z,2716
2017-09-26T11:36:57.136Z,2708
2017-09-26T11:37:37.677Z,2716
2017-09-26T11:38:18.200Z,2724
2017-09-26T11:38:58.721Z,2732
2017-09-26T11:39:39.310Z,2732
2017-09-26T11:40:19.758Z,2736
2017-09-26T11:41:00.312Z,2732
2017-09-26T11:41:40.866Z,2732
2017-09-26T11:42:21.416Z,2736
2017-09-26T11:43:01.970Z,2728
2017-09-26T11:43:42.521Z,2736
2017-09-26T11:44:23.008Z,2744
2017-09-26T11:45:03.628Z,2756
2017-09-26T11:45:44.208Z,2768
2017-09-26T11:46:24.763Z,2780
2017-09-26T11:47:05.299Z,2780
2017-09-26T11:47:45.837Z,2792
2017-09-26T11:48:26.359Z,2796
2017-09-26T11:49:06.922Z,2792
2017-09-26T11:49:47.449Z,2800
2017-09-26T11:50:28.015Z,2808
2017-09-26T11:51:08.500Z,2828
2017-09-26T11:51:49.108Z,2844
2017-09-26T11:52:29.671Z,2876
2017-09-26T11:53:10.178Z,2888
2017-09-26T11:53:50.785Z,2904
2017-09-26T11:54:31.325Z,2912
2017-09-26T11:55:11.862Z,2916
2017-09-26T11:55:52.352Z,2936
2017-09-26T11:56:32.930Z,2952
2017-09-26T11:57:13.492Z,2972
2017-09-26T11:57:54.019Z,3000
2017-09-26T11:58:34.514Z,3016
2017-09-26T11:59:15.135Z,3024
2017-09-26T11:59:55.622Z,3032
2017-09-26T12:00:36.170Z,3048
2017-09-26T12:01:16.741Z,3076
2017-09-26T12:01:57.314Z,3088
2017-09-26T12:05:44.298Z,3280
2017-09-26T12:06:24.859Z,3340
2017-09-26T12:07:05.448Z,3392
2017-09-26T12:07:45.968Z,3440
2017-09-26T12:08:41.088Z,3500
2017-09-26T12:09:21.629Z,3532
2017-09-26T12:10:02.234Z,3556
2017-09-26T12:10:42.793Z,3576
2017-09-26T12:11:23.284Z,3572
2017-09-26T12:12:03.901Z,3540
2017-09-26T12:12:44.709Z,3512
2017-09-26T12:13:29.342Z,3496
2017-09-26T12:14:09.974Z,3528
2017-09-26T12:14:51.327Z,3592
2017-09-26T12:15:35.499Z,3660
2017-09-26T12:16:15.983Z,3752
2017-09-26T12:22:03.515Z,4116
2017-09-26T12:22:45.694Z,4056
2017-09-26T12:32:52.901Z,3704
2017-09-26T15:28:29.926Z,1732
2017-09-26T15:29:10.194Z,1724
2017-09-26T15:29:50.740Z,1716
2017-09-26T15:30:31.497Z,1712
2017-09-26T15:31:12.167Z,1704
2017-09-26T15:31:52.741Z,1696
2017-09-26T15:32:33.378Z,1692
2017-09-26T15:33:14.206Z,1684
2017-09-26T15:33:54.830Z,1676
2017-09-26T15:34:43.064Z,1664
2017-09-26T15:35:23.952Z,1660
2017-09-26T15:36:04.495Z,1656
2017-09-26T15:36:45.035Z,1652
2017-09-26T15:37:25.616Z,1644
2017-09-26T15:38:06.196Z,1636